createdAt,value
2019-04-30T00:01:58.979Z,86.18
2019-04-30T00:04:30.029Z,86.02
2019-04-30T00:07:00.075Z,86.19
2019-04-30T00:09:30.418Z,86.10
2019-04-30T00:12:01.265Z,86.33
2019-04-30T00:14:36.844Z,86.54
2019-04-30T00:17:02.138Z,86.43
2019-04-30T00:19:32.046Z,86.45
2019-04-30T00:22:01.520Z,86.30
2019-04-30T00:24:30.987Z,86.13
2019-04-30T00:27:00.390Z,86.19
2019-04-30T00:29:31.041Z,86.35
2019-04-30T00:32:04.474Z,86.36
2019-04-30T00:34:35.998Z,86.61
2019-04-30T00:37:07.370Z,86.60
2019-04-30T00:39:35.552Z,86.61
2019-04-30T00:42:05.092Z,86.64
2019-04-30T00:44:35.662Z,86.65
2019-04-30T00:47:08.311Z,86.86
2019-04-30T00:49:37.903Z,87.18
2019-04-30T00:52:07.238Z,87.00
2019-04-30T00:54:36.616Z,87.13
2019-04-30T00:57:07.673Z,87.14
2019-04-30T00:59:39.690Z,87.26
2019-04-30T01:02:20.233Z,87.09
2019-04-30T01:04:48.826Z,86.89
2019-04-30T01:07:18.599Z,86.74
2019-04-30T01:09:49.875Z,86.93
2019-04-30T01:12:25.510Z,87.25
2019-04-30T01:14:50.611Z,86.97
2019-04-30T01:17:20.034Z,87.02
2019-04-30T01:19:51.137Z,87.06
2019-04-30T01:22:27.725Z,87.10
2019-04-30T01:24:52.054Z,87.03
2019-04-30T01:27:21.481Z,86.98
2019-04-30T01:29:50.933Z,86.82
2019-04-30T01:32:21.162Z,86.78
2019-04-30T01:34:53.851Z,87.21
2019-04-30T01:37:28.672Z,86.98
2019-04-30T01:39:52.886Z,86.65
2019-04-30T01:42:22.194Z,86.53
2019-04-30T01:44:53.868Z,86.68
2019-04-30T01:47:27.710Z,86.72
2019-04-30T01:49:55.793Z,86.53
2019-04-30T01:52:29.181Z,86.37
2019-04-30T01:54:58.660Z,86.39
2019-04-30T01:57:29.867Z,86.55
2019-04-30T02:00:03.467Z,86.85
2019-04-30T02:02:34.513Z,86.94
2019-04-30T02:05:05.381Z,87.17
2019-04-30T02:07:34.748Z,87.01
2019-04-30T02:10:05.447Z,87.10
2019-04-30T02:12:34.812Z,86.95
2019-04-30T02:15:04.326Z,87.16
2019-04-30T02:17:33.723Z,86.98
2019-04-30T02:20:03.290Z,86.90
2019-04-30T02:22:32.639Z,86.71
2019-04-30T02:25:01.974Z,86.21
2019-04-30T02:27:31.344Z,86.32
2019-04-30T02:30:02.628Z,85.88
2019-04-30T02:32:31.826Z,85.42
2019-04-30T02:35:09.617Z,85.19
2019-04-30T02:37:59.574Z,84.86
2019-04-30T02:40:30.216Z,85.20
2019-04-30T02:43:01.773Z,85.54
2019-04-30T02:45:33.408Z,85.78
2019-04-30T02:48:04.274Z,86.18
2019-04-30T02:50:36.250Z,86.24
2019-04-30T02:53:19.911Z,86.24
2019-04-30T02:55:49.926Z,85.98
2019-04-30T02:58:21.077Z,86.22
2019-04-30T03:00:50.550Z,86.81
2019-04-30T03:03:20.384Z,87.08
2019-04-30T03:05:50.216Z,87.12
2019-04-30T03:08:19.943Z,87.19
2019-04-30T03:10:50.001Z,87.54
2019-04-30T03:13:20.603Z,87.51
2019-04-30T03:15:50.033Z,87.29
2019-04-30T03:18:23.777Z,87.36
2019-04-30T03:20:54.816Z,87.08
2019-04-30T03:23:24.112Z,87.35
2019-04-30T03:25:53.481Z,87.26
2019-04-30T03:28:22.825Z,86.90
2019-04-30T03:30:57.993Z,86.62
2019-04-30T03:33:23.442Z,86.75
2019-04-30T03:35:54.592Z,86.56
2019-04-30T03:38:23.878Z,86.51
2019-04-30T03:40:53.242Z,86.63
2019-04-30T03:43:22.592Z,86.78
2019-04-30T03:45:51.960Z,87.13
2019-04-30T03:48:21.207Z,87.20
2019-04-30T03:50:56.708Z,87.29
2019-04-30T03:53:21.740Z,86.98
2019-04-30T03:55:51.037Z,86.72
2019-04-30T03:58:21.466Z,86.85
2019-04-30T04:01:10.154Z,86.61
2019-04-30T04:04:00.195Z,86.77
2019-04-30T04:06:30.358Z,86.52
2019-04-30T04:09:01.302Z,86.77
2019-04-30T04:11:32.280Z,86.74
2019-04-30T04:14:01.674Z,86.88
2019-04-30T04:16:32.260Z,87.26
2019-04-30T04:19:02.890Z,86.84
2019-04-30T04:21:32.464Z,86.54
2019-04-30T04:24:01.830Z,86.69
2019-04-30T04:26:31.256Z,86.24
2019-04-30T04:29:00.608Z,86.34
2019-04-30T04:31:30.044Z,86.45
2019-04-30T04:34:00.066Z,86.32
2019-04-30T04:36:30.399Z,85.88
2019-04-30T04:39:00.222Z,85.77
2019-04-30T04:41:29.881Z,86.08
2019-04-30T04:44:00.083Z,85.92
2019-04-30T04:46:30.649Z,85.93
2019-04-30T04:49:00.446Z,86.08
2019-04-30T04:51:38.151Z,86.06
2019-04-30T04:54:03.324Z,85.83
2019-04-30T04:56:31.755Z,85.74
2019-04-30T04:59:01.130Z,86.01
2019-04-30T05:01:30.571Z,85.97
2019-04-30T05:03:59.889Z,85.62
2019-04-30T05:06:29.985Z,86.04
2019-04-30T05:09:01.637Z,85.84
2019-04-30T05:11:31.666Z,85.72
2019-04-30T05:14:01.358Z,85.51
2019-04-30T05:16:30.840Z,85.80
2019-04-30T05:19:01.202Z,85.78
2019-04-30T05:21:41.980Z,85.67
2019-04-30T05:24:02.329Z,85.64
2019-04-30T05:26:31.692Z,85.75
2019-04-30T05:29:00.973Z,85.29
2019-04-30T05:31:30.380Z,85.31
2019-04-30T05:33:59.600Z,85.44
2019-04-30T05:36:29.313Z,84.96
2019-04-30T05:38:58.882Z,84.20
2019-04-30T05:41:28.970Z,84.22
2019-04-30T05:43:59.172Z,83.77
2019-04-30T05:46:29.825Z,83.63
2019-04-30T05:48:59.562Z,83.53
2019-04-30T05:51:29.096Z,83.30
2019-04-30T05:53:59.248Z,82.96
2019-04-30T05:56:30.461Z,82.73
2019-04-30T05:59:01.024Z,82.63
2019-04-30T06:01:30.533Z,82.96
2019-04-30T06:03:59.900Z,82.53
2019-04-30T06:06:29.267Z,80.75
2019-04-30T06:09:06.582Z,81.07
2019-04-30T06:11:51.776Z,80.91
2019-04-30T06:14:25.397Z,80.97
2019-04-30T06:17:05.037Z,80.67
2019-04-30T06:19:34.640Z,81.68
2019-04-30T06:22:08.070Z,80.83
2019-04-30T06:24:36.001Z,81.06
2019-04-30T06:27:05.615Z,80.92
2019-04-30T06:29:36.761Z,80.80
2019-04-30T06:32:06.240Z,80.71
2019-04-30T06:34:36.061Z,80.57
2019-04-30T06:37:05.609Z,80.44
2019-04-30T06:39:38.578Z,79.76
2019-04-30T06:42:12.503Z,79.45
2019-04-30T06:44:41.899Z,79.64
2019-04-30T06:47:10.827Z,79.34
2019-04-30T06:49:40.312Z,78.82
2019-04-30T06:52:20.220Z,78.47
2019-04-30T06:54:40.828Z,78.53
2019-04-30T06:57:12.092Z,77.97
2019-04-30T06:59:42.729Z,77.67
2019-04-30T07:02:12.112Z,77.84
2019-04-30T07:04:41.524Z,77.51
2019-04-30T07:07:14.277Z,76.96
2019-04-30T07:09:53.157Z,76.58
2019-04-30T07:12:29.885Z,77.37
2019-04-30T07:14:59.181Z,77.84
2019-04-30T07:17:29.228Z,77.78
2019-04-30T07:19:59.719Z,78.15
2019-04-30T07:22:40.184Z,78.13
2019-04-30T07:25:00.369Z,77.83
2019-04-30T07:27:30.160Z,77.32
2019-04-30T07:30:00.722Z,76.93
2019-04-30T07:32:30.246Z,75.86
2019-04-30T07:34:59.703Z,74.93
2019-04-30T07:37:29.445Z,72.97
2019-04-30T07:39:59.044Z,71.57
2019-04-30T07:42:29.416Z,72.75
2019-04-30T07:45:00.763Z,70.79
2019-04-30T07:47:30.018Z,70.18
2019-04-30T07:50:00.640Z,70.71
2019-04-30T07:52:33.958Z,69.29
2019-04-30T07:55:01.453Z,68.61
2019-04-30T07:57:32.520Z,68.91
2019-04-30T08:00:02.143Z,68.39
2019-04-30T08:02:37.057Z,68.93
2019-04-30T08:05:10.316Z,67.27
2019-04-30T08:07:39.205Z,65.64
2019-04-30T08:10:09.917Z,65.57
2019-04-30T08:12:42.798Z,65.30
2019-04-30T08:15:11.941Z,63.76
2019-04-30T08:17:41.213Z,61.70
2019-04-30T08:20:10.938Z,61.21
2019-04-30T08:22:41.120Z,60.08
2019-04-30T08:25:10.644Z,60.17
2019-04-30T08:27:40.034Z,56.97
2019-04-30T08:30:21.416Z,58.64
2019-04-30T08:32:41.404Z,55.19
2019-04-30T08:35:10.786Z,52.35
2019-04-30T08:37:40.246Z,53.91
2019-04-30T08:40:10.147Z,54.49
2019-04-30T08:42:40.371Z,55.06
2019-04-30T08:45:10.399Z,56.33
2019-04-30T08:47:39.840Z,56.77
2019-04-30T08:50:10.660Z,56.92
2019-04-30T08:52:40.323Z,57.06
2019-04-30T08:55:16.277Z,55.25
2019-04-30T08:57:41.210Z,55.44
2019-04-30T09:00:11.805Z,55.18
2019-04-30T09:02:42.527Z,54.56
2019-04-30T09:05:15.032Z,55.39
2019-04-30T09:07:44.370Z,55.23
2019-04-30T09:10:15.298Z,53.59
2019-04-30T09:12:44.654Z,52.95
2019-04-30T09:15:14.178Z,51.13
2019-04-30T09:17:58.117Z,49.88
2019-04-30T09:20:16.359Z,49.98
2019-04-30T09:22:46.606Z,48.03
2019-04-30T09:25:19.416Z,48.33
2019-04-30T09:27:48.950Z,46.07
2019-04-30T09:30:19.025Z,44.41
2019-04-30T09:32:49.940Z,46.70
2019-04-30T09:35:19.717Z,47.39
2019-04-30T09:37:49.634Z,48.92
2019-04-30T09:40:21.183Z,49.98
2019-04-30T09:42:50.847Z,51.65
2019-04-30T09:45:20.318Z,52.76
2019-04-30T09:47:50.580Z,53.10
2019-04-30T09:50:20.241Z,52.23
2019-04-30T09:52:50.135Z,52.12
2019-04-30T09:55:20.026Z,52.76
2019-04-30T09:57:49.320Z,52.37
2019-04-30T10:00:19.493Z,53.04
2019-04-30T10:02:49.055Z,54.88
2019-04-30T10:05:19.861Z,54.47
2019-04-30T10:07:49.911Z,54.20
2019-04-30T10:10:21.525Z,54.90
2019-04-30T10:12:50.840Z,56.43
2019-04-30T10:15:30.848Z,60.29
2019-04-30T10:18:00.337Z,62.87
2019-04-30T10:20:41.241Z,64.42
2019-04-30T10:23:10.611Z,67.21
2019-04-30T10:25:40.128Z,68.62
2019-04-30T10:28:10.095Z,70.14
2019-04-30T10:30:39.985Z,71.89
2019-04-30T10:33:10.117Z,72.66
2019-04-30T10:35:39.587Z,73.56
2019-04-30T10:38:09.893Z,74.73
2019-04-30T10:40:39.738Z,74.99
2019-04-30T10:43:09.371Z,74.54
2019-04-30T10:45:39.094Z,74.51
2019-04-30T10:48:08.606Z,73.74
2019-04-30T10:50:40.767Z,75.32
2019-04-30T10:53:09.527Z,74.24
2019-04-30T10:55:40.112Z,74.39
2019-04-30T10:58:09.515Z,73.59
2019-04-30T11:00:41.203Z,75.37
2019-04-30T11:03:19.598Z,74.31
2019-04-30T11:05:41.775Z,73.83
2019-04-30T11:08:11.316Z,73.19
2019-04-30T11:10:41.112Z,72.99
2019-04-30T11:13:10.686Z,70.66
2019-04-30T11:15:40.086Z,68.79
2019-04-30T11:18:09.813Z,71.02
2019-04-30T11:20:39.808Z,71.41
2019-04-30T11:23:14.478Z,71.38
2019-04-30T11:25:41.837Z,70.57
2019-04-30T11:28:12.462Z,67.13
2019-04-30T11:30:42.609Z,68.43
2019-04-30T11:33:13.159Z,67.43
2019-04-30T11:35:43.669Z,69.13
2019-04-30T11:38:13.038Z,68.59
2019-04-30T11:40:42.716Z,68.72
2019-04-30T11:43:12.091Z,67.38
2019-04-30T11:45:52.858Z,67.70
2019-04-30T11:48:22.578Z,66.81
2019-04-30T11:50:52.043Z,65.24
2019-04-30T11:53:27.575Z,63.89
2019-04-30T11:55:54.053Z,62.56
2019-04-30T11:58:23.485Z,61.88
2019-04-30T12:00:53.163Z,63.81
2019-04-30T12:03:23.970Z,62.76
2019-04-30T12:05:53.425Z,62.42
2019-04-30T12:08:26.512Z,64.41
2019-04-30T12:11:00.956Z,65.32
2019-04-30T12:13:31.271Z,66.07
2019-04-30T12:16:00.898Z,65.88
2019-04-30T12:18:30.317Z,65.91
2019-04-30T12:20:59.696Z,64.94
2019-04-30T12:23:29.062Z,63.61
2019-04-30T12:26:00.948Z,65.01
2019-04-30T12:28:29.727Z,64.47
2019-04-30T12:30:59.171Z,64.09
2019-04-30T12:33:28.625Z,64.38
2019-04-30T12:35:59.571Z,64.45
2019-04-30T12:38:29.841Z,63.92
2019-04-30T12:40:59.477Z,64.36
2019-04-30T12:43:28.860Z,64.12
2019-04-30T12:46:03.503Z,65.50
2019-04-30T12:48:34.683Z,66.26
2019-04-30T12:51:14.995Z,66.59
2019-04-30T12:53:48.765Z,66.81
2019-04-30T12:56:35.871Z,67.39
2019-04-30T12:59:05.458Z,69.19
2019-04-30T13:01:34.890Z,69.06
2019-04-30T13:04:04.380Z,69.66
2019-04-30T13:06:34.395Z,70.10
2019-04-30T13:09:06.534Z,70.72
2019-04-30T13:11:40.087Z,72.37
2019-04-30T13:14:10.339Z,70.45
2019-04-30T13:16:39.943Z,70.71
2019-04-30T13:19:12.947Z,71.27
2019-04-30T13:21:42.380Z,72.12
2019-04-30T13:24:11.798Z,71.51
2019-04-30T13:26:41.362Z,71.23
2019-04-30T13:29:12.401Z,71.68
2019-04-30T13:31:41.766Z,70.12
2019-04-30T13:34:22.043Z,70.10
2019-04-30T13:36:51.566Z,70.03
2019-04-30T13:39:27.014Z,71.16
2019-04-30T13:42:00.625Z,70.28
2019-04-30T13:44:31.639Z,69.82
2019-04-30T13:47:01.029Z,69.26
2019-04-30T13:49:30.503Z,70.18
2019-04-30T13:51:59.867Z,69.23
2019-04-30T13:54:29.292Z,69.40
2019-04-30T13:56:59.161Z,68.59
2019-04-30T13:59:28.576Z,68.88
2019-04-30T14:01:58.813Z,68.38
2019-04-30T14:04:39.016Z,68.42
2019-04-30T14:07:15.769Z,67.67
2019-04-30T14:09:45.101Z,66.52
2019-04-30T14:12:14.696Z,66.03
2019-04-30T14:14:43.974Z,66.65
2019-04-30T14:17:13.470Z,66.91
2019-04-30T14:19:42.875Z,67.15
2019-04-30T14:22:12.589Z,67.02
2019-04-30T14:24:42.025Z,68.99
2019-04-30T14:27:11.619Z,69.79
2019-04-30T14:29:40.996Z,69.52
2019-04-30T14:32:10.465Z,71.64
2019-04-30T14:34:39.942Z,72.09
2019-04-30T14:37:09.371Z,72.09
2019-04-30T14:39:39.029Z,72.64
2019-04-30T14:42:10.598Z,73.01
2019-04-30T14:44:40.611Z,73.33
2019-04-30T14:47:15.653Z,73.78
2019-04-30T14:50:04.398Z,73.97
2019-04-30T14:52:34.171Z,74.19
2019-04-30T14:55:14.366Z,74.26
2019-04-30T14:57:53.386Z,73.81
2019-04-30T15:00:31.981Z,72.64
2019-04-30T15:03:11.969Z,72.37
2019-04-30T15:05:48.551Z,72.39
2019-04-30T15:08:13.910Z,71.94
2019-04-30T15:10:44.745Z,72.12
2019-04-30T15:13:14.112Z,72.23
2019-04-30T15:15:43.445Z,72.72
2019-04-30T15:18:12.994Z,72.10
2019-04-30T15:20:42.450Z,71.52
2019-04-30T15:23:21.762Z,70.63
2019-04-30T15:25:50.594Z,69.75
2019-04-30T15:28:20.695Z,68.28
2019-04-30T15:30:50.166Z,68.22
2019-04-30T15:33:21.167Z,67.39
2019-04-30T15:35:50.702Z,67.79
2019-04-30T15:38:21.652Z,68.29
2019-04-30T15:40:52.680Z,68.56
2019-04-30T15:43:22.242Z,69.78
2019-04-30T15:45:51.722Z,70.78
2019-04-30T15:48:21.217Z,70.80
2019-04-30T15:50:50.650Z,71.05
2019-04-30T15:53:20.045Z,71.91
2019-04-30T15:55:49.410Z,72.52
2019-04-30T15:58:26.496Z,73.36
2019-04-30T16:00:55.935Z,73.87
2019-04-30T16:03:33.184Z,73.04
2019-04-30T16:06:03.517Z,73.15
2019-04-30T16:08:34.703Z,72.92
2019-04-30T16:11:20.637Z,72.86
2019-04-30T16:13:51.634Z,72.65
2019-04-30T16:16:21.298Z,70.67
2019-04-30T16:18:50.745Z,68.50
2019-04-30T16:21:20.142Z,68.74
2019-04-30T16:23:49.443Z,68.25
2019-04-30T16:26:18.943Z,67.02
2019-04-30T16:28:49.527Z,67.28
2019-04-30T16:31:20.523Z,67.34
2019-04-30T16:33:50.018Z,67.70
2019-04-30T16:36:22.558Z,68.37
2019-04-30T16:38:51.916Z,69.41
2019-04-30T16:41:31.194Z,69.66
2019-04-30T16:43:53.857Z,70.50
2019-04-30T16:46:23.320Z,70.80
2019-04-30T16:48:52.705Z,71.57
2019-04-30T16:51:22.052Z,72.07
2019-04-30T16:53:51.333Z,72.79
2019-04-30T16:56:20.780Z,72.91
2019-04-30T16:59:03.564Z,73.70
2019-04-30T17:01:34.608Z,74.45
2019-04-30T17:04:16.104Z,75.09
2019-04-30T17:07:03.799Z,76.02
2019-04-30T17:09:34.870Z,76.91
2019-04-30T17:12:08.800Z,77.25
2019-04-30T17:14:39.732Z,77.10
2019-04-30T17:17:09.059Z,76.25
2019-04-30T17:19:40.009Z,76.58
2019-04-30T17:22:09.381Z,77.25
2019-04-30T17:24:39.449Z,79.36
2019-04-30T17:27:18.667Z,80.82
2019-04-30T17:29:40.010Z,82.20
2019-04-30T17:32:10.611Z,83.41
2019-04-30T17:34:40.092Z,83.98
2019-04-30T17:37:09.410Z,83.93
2019-04-30T17:39:41.089Z,84.45
2019-04-30T17:42:10.337Z,84.29
2019-04-30T17:44:39.817Z,84.80
2019-04-30T17:47:09.182Z,85.01
2019-04-30T17:49:38.415Z,85.42
2019-04-30T17:52:08.858Z,85.52
2019-04-30T17:54:38.362Z,85.76
2019-04-30T17:57:10.460Z,86.07
2019-04-30T17:59:38.851Z,86.24
2019-04-30T18:02:09.709Z,86.25
2019-04-30T18:04:39.266Z,86.56
2019-04-30T18:07:09.916Z,86.16
2019-04-30T18:09:39.562Z,86.26
2019-04-30T18:12:09.512Z,86.45
2019-04-30T18:14:39.613Z,86.63
2019-04-30T18:17:09.389Z,86.95
2019-04-30T18:19:43.240Z,87.07
2019-04-30T18:22:19.487Z,87.06
2019-04-30T18:24:50.604Z,86.86
2019-04-30T18:27:24.035Z,86.95
2019-04-30T18:29:53.411Z,86.86
2019-04-30T18:32:25.878Z,86.95
2019-04-30T18:34:55.260Z,87.21
2019-04-30T18:37:24.570Z,87.14
2019-04-30T18:39:53.907Z,87.15
2019-04-30T18:42:23.143Z,87.03
2019-04-30T18:44:52.459Z,86.97
2019-04-30T18:47:22.044Z,87.01
2019-04-30T18:49:53.761Z,87.18
2019-04-30T18:52:23.131Z,87.02
2019-04-30T18:54:52.539Z,87.07
2019-04-30T18:57:21.937Z,87.22
2019-04-30T18:59:51.411Z,87.25
2019-04-30T19:02:20.899Z,87.36
2019-04-30T19:04:50.344Z,86.97
2019-04-30T19:07:21.352Z,86.90
2019-04-30T19:09:55.358Z,87.04
2019-04-30T19:12:29.294Z,87.33
2019-04-30T19:15:03.413Z,87.40
2019-04-30T19:17:39.323Z,87.50
2019-04-30T19:20:10.770Z,87.33
2019-04-30T19:22:40.498Z,86.97
2019-04-30T19:25:11.517Z,87.01
2019-04-30T19:27:41.030Z,87.24
2019-04-30T19:30:11.712Z,87.43
2019-04-30T19:32:41.055Z,87.43
2019-04-30T19:35:14.181Z,87.68
2019-04-30T19:37:43.613Z,87.84
2019-04-30T19:40:13.443Z,87.72
2019-04-30T19:42:42.725Z,87.82
2019-04-30T19:45:13.570Z,88.02
2019-04-30T19:47:42.985Z,87.86
2019-04-30T19:50:14.098Z,88.09
2019-04-30T19:52:43.749Z,88.30
2019-04-30T19:55:13.252Z,88.20
2019-04-30T19:57:42.565Z,88.40
2019-04-30T20:00:12.663Z,88.41
2019-04-30T20:02:42.085Z,88.71
2019-04-30T20:05:13.530Z,88.65
2019-04-30T20:07:42.889Z,88.55
2019-04-30T20:10:12.511Z,88.49
2019-04-30T20:12:41.904Z,88.51
2019-04-30T20:15:19.274Z,88.63
2019-04-30T20:17:42.836Z,88.43
2019-04-30T20:20:13.102Z,88.46
2019-04-30T20:22:42.560Z,88.62
2019-04-30T20:25:11.962Z,88.77
2019-04-30T20:27:41.382Z,89.12
2019-04-30T20:30:11.450Z,88.96
2019-04-30T20:32:40.929Z,88.98
2019-04-30T20:35:10.368Z,88.80
2019-04-30T20:37:59.453Z,88.85
2019-04-30T20:40:42.677Z,88.85
2019-04-30T20:43:01.604Z,88.68
2019-04-30T20:45:31.027Z,88.65
2019-04-30T20:48:00.501Z,88.76
2019-04-30T20:50:29.829Z,88.82
2019-04-30T20:52:59.282Z,88.75
2019-04-30T20:55:28.753Z,88.73
2019-04-30T20:57:59.495Z,88.84
2019-04-30T21:00:29.030Z,88.82
2019-04-30T21:02:59.833Z,88.71
2019-04-30T21:05:29.476Z,88.72
2019-04-30T21:07:59.064Z,89.08
2019-04-30T21:10:29.671Z,89.26
2019-04-30T21:12:59.090Z,89.25
2019-04-30T21:15:29.729Z,89.27
2019-04-30T21:17:59.440Z,89.20
2019-04-30T21:20:29.089Z,89.16
2019-04-30T21:22:59.635Z,89.24
2019-04-30T21:25:29.375Z,89.40
2019-04-30T21:27:59.946Z,89.51
2019-04-30T21:30:29.706Z,89.54
2019-04-30T21:33:18.963Z,89.62
2019-04-30T21:35:50.793Z,89.64
2019-04-30T21:38:20.424Z,89.57
2019-04-30T21:40:49.824Z,89.74
2019-04-30T21:43:19.129Z,89.72
2019-04-30T21:45:49.382Z,89.66
2019-04-30T21:48:19.263Z,89.54
2019-04-30T21:50:49.769Z,89.13
2019-04-30T21:53:19.653Z,89.09
2019-04-30T21:55:50.829Z,89.33
2019-04-30T21:58:20.607Z,89.57
2019-04-30T22:00:54.590Z,89.66
2019-04-30T22:03:24.079Z,89.60
2019-04-30T22:05:53.375Z,89.67
2019-04-30T22:08:22.756Z,89.57
2019-04-30T22:10:52.345Z,89.46
2019-04-30T22:13:21.777Z,89.53
2019-04-30T22:15:51.195Z,89.46
2019-04-30T22:18:20.651Z,89.50
2019-04-30T22:20:49.957Z,89.51
2019-04-30T22:23:19.288Z,89.42
2019-04-30T22:25:49.130Z,89.33
2019-04-30T22:28:18.422Z,89.05
2019-04-30T22:30:48.333Z,89.19
2019-04-30T22:33:19.406Z,89.15
2019-04-30T22:35:53.237Z,89.21
2019-04-30T22:38:24.274Z,89.18
2019-04-30T22:40:53.647Z,89.18
2019-04-30T22:43:23.078Z,88.93
2019-04-30T22:46:11.974Z,88.54
2019-04-30T22:48:41.357Z,88.53
2019-04-30T22:51:10.727Z,88.40
2019-04-30T22:53:40.152Z,88.15
2019-04-30T22:56:09.614Z,88.41
2019-04-30T22:58:39.262Z,88.27
2019-04-30T23:01:26.760Z,88.16
2019-04-30T23:04:12.584Z,88.20
2019-04-30T23:06:41.983Z,87.85
2019-04-30T23:09:13.488Z,87.16
2019-04-30T23:11:42.880Z,86.72
2019-04-30T23:14:12.270Z,86.27
2019-04-30T23:16:41.708Z,86.12
2019-04-30T23:19:11.022Z,86.12
2019-04-30T23:21:40.712Z,86.10
2019-04-30T23:24:10.219Z,85.89
2019-04-30T23:26:39.745Z,85.50
2019-04-30T23:29:09.052Z,85.16
2019-04-30T23:31:40.735Z,85.08
2019-04-30T23:34:17.812Z,85.00
2019-04-30T23:36:41.138Z,85.04
2019-04-30T23:39:11.417Z,84.88
2019-04-30T23:41:40.810Z,84.95
2019-04-30T23:44:10.299Z,85.21
2019-04-30T23:46:39.686Z,85.45
2019-04-30T23:49:09.121Z,85.11
2019-04-30T23:51:38.478Z,85.29
2019-04-30T23:54:07.782Z,85.28
2019-04-30T23:56:37.252Z,85.12
2019-04-30T23:59:06.618Z,85.03
